sensor_id;sensor_type;location;lat;lon;timestamp;pressure;altitude;pressure_sealevel;temperature;humidity
76124;BME280;65173;48.066;20.976;2023-01-08T00:02:48;100852.13;;;4.59;93.04
76124;BME280;65173;48.066;20.976;2023-01-08T00:05:53;100852.41;;;4.62;93.11
76124;BME280;65173;48.066;20.976;2023-01-08T00:08:56;100852.97;;;4.64;92.70
76124;BME280;65173;48.066;20.976;2023-01-08T00:11:58;100846.09;;;4.68;92.26
76124;BME280;65173;48.066;20.976;2023-01-08T00:15:04;100852.94;;;4.59;92.47
76124;BME280;65173;48.066;20.976;2023-01-08T00:18:07;100851.31;;;4.53;92.85
76124;BME280;65173;48.066;20.976;2023-01-08T00:21:10;100844.25;;;4.64;92.86
76124;BME280;65173;48.066;20.976;2023-01-08T00:24:13;100851.31;;;4.53;93.00
76124;BME280;65173;48.066;20.976;2023-01-08T00:27:16;100833.66;;;4.59;92.88
76124;BME280;65173;48.066;20.976;2023-01-08T00:30:19;100836.78;;;4.50;92.94
76124;BME280;65173;48.066;20.976;2023-01-08T00:33:21;100841.56;;;4.53;92.78
76124;BME280;65173;48.066;20.976;2023-01-08T00:36:24;100845.00;;;4.59;92.49
76124;BME280;65173;48.066;20.976;2023-01-08T00:39:27;100837.63;;;4.61;92.70
76124;BME280;65173;48.066;20.976;2023-01-08T00:42:30;100836.00;;;4.50;92.57
76124;BME280;65173;48.066;20.976;2023-01-08T00:45:33;100835.72;;;4.46;92.56
76124;BME280;65173;48.066;20.976;2023-01-08T00:48:36;100831.72;;;4.39;92.63
76124;BME280;65173;48.066;20.976;2023-01-08T00:51:40;100845.69;;;4.34;92.80
76124;BME280;65173;48.066;20.976;2023-01-08T00:54:43;100840.38;;;4.24;93.11
76124;BME280;65173;48.066;20.976;2023-01-08T00:57:45;100841.22;;;4.30;92.84
76124;BME280;65173;48.066;20.976;2023-01-08T01:00:48;100836.19;;;4.28;92.86
76124;BME280;65173;48.066;20.976;2023-01-08T01:03:51;100835.06;;;4.19;92.88
76124;BME280;65173;48.066;20.976;2023-01-08T01:06:54;100836.66;;;4.20;93.27
76124;BME280;65173;48.066;20.976;2023-01-08T01:09:57;100836.66;;;4.20;93.19
76124;BME280;65173;48.066;20.976;2023-01-08T01:13:00;100820.50;;;4.06;93.21
76124;BME280;65173;48.066;20.976;2023-01-08T01:16:02;100832.13;;;4.10;93.26
76124;BME280;65173;48.066;20.976;2023-01-08T01:19:06;100827.38;;;4.12;93.36
76124;BME280;65173;48.066;20.976;2023-01-08T01:22:09;100825.31;;;4.19;93.07
76124;BME280;65173;48.066;20.976;2023-01-08T01:25:12;100817.91;;;4.16;92.96
76124;BME280;65173;48.066;20.976;2023-01-08T01:28:15;100821.09;;;4.18;92.96
76124;BME280;65173;48.066;20.976;2023-01-08T01:31:19;100815.53;;;4.10;93.18
76124;BME280;65173;48.066;20.976;2023-01-08T01:34:22;100809.72;;;4.13;93.18
76124;BME280;65173;48.066;20.976;2023-01-08T01:37:25;100812.38;;;4.18;92.67
76124;BME280;65173;48.066;20.976;2023-01-08T01:40:30;100818.16;;;4.15;92.67
76124;BME280;65173;48.066;20.976;2023-01-08T01:43:41;100826.88;;;4.10;92.47
76124;BME280;65173;48.066;20.976;2023-01-08T01:46:45;100829.72;;;4.04;92.51
76124;BME280;65173;48.066;20.976;2023-01-08T01:49:54;100831.03;;;4.01;92.53
76124;BME280;65173;48.066;20.976;2023-01-08T01:53:12;100814.16;;;4.02;92.66
76124;BME280;65173;48.066;20.976;2023-01-08T01:56:18;100817.84;;;4.01;92.50
76124;BME280;65173;48.066;20.976;2023-01-08T01:59:21;100820.50;;;4.06;92.12
76124;BME280;65173;48.066;20.976;2023-01-08T02:02:24;100820.78;;;4.15;91.74
76124;BME280;65173;48.066;20.976;2023-01-08T02:05:35;100813.69;;;4.10;92.06
76124;BME280;65173;48.066;20.976;2023-01-08T02:08:55;100817.88;;;4.06;91.95
76124;BME280;65173;48.066;20.976;2023-01-08T02:12:09;100811.03;;;4.10;91.94
76124;BME280;65173;48.066;20.976;2023-01-08T02:15:26;100812.34;;;4.08;92.00
76124;BME280;65173;48.066;20.976;2023-01-08T02:21:57;100806.59;;;4.21;91.30
76124;BME280;65173;48.066;20.976;2023-01-08T02:25:09;100811.03;;;4.10;91.57
76124;BME280;65173;48.066;20.976;2023-01-08T02:28:13;100807.84;;;4.08;91.83
76124;BME280;65173;48.066;20.976;2023-01-08T02:31:19;100805.22;;;4.08;91.90
76124;BME280;65173;48.066;20.976;2023-01-08T02:34:23;100808.69;;;4.19;91.50
76124;BME280;65173;48.066;20.976;2023-01-08T02:37:26;100801.78;;;4.08;91.63
76124;BME280;65173;48.066;20.976;2023-01-08T02:40:42;100799.16;;;4.08;91.52
76124;BME280;65173;48.066;20.976;2023-01-08T02:43:50;100794.16;;;4.11;91.31
76124;BME280;65173;48.066;20.976;2023-01-08T02:46:56;100797.56;;;4.07;91.76
76124;BME280;65173;48.066;20.976;2023-01-08T02:50:08;100792.03;;;4.08;91.52
76124;BME280;65173;48.066;20.976;2023-01-08T02:56:21;100789.41;;;4.08;91.67
76124;BME280;65173;48.066;20.976;2023-01-08T02:59:28;100788.88;;;4.16;90.93
76124;BME280;65173;48.066;20.976;2023-01-08T03:02:34;100786.28;;;4.22;90.80
76124;BME280;65173;48.066;20.976;2023-01-08T03:05:40;100775.94;;;4.15;90.99
76124;BME280;65173;48.066;20.976;2023-01-08T03:08:46;100770.94;;;4.13;91.02
76124;BME280;65173;48.066;20.976;2023-01-08T03:11:59;100764.09;;;4.17;91.10
76124;BME280;65173;48.066;20.976;2023-01-08T03:15:08;100755.09;;;4.13;91.12
76124;BME280;65173;48.066;20.976;2023-01-08T03:18:25;100745.34;;;4.14;90.97
76124;BME280;65173;48.066;20.976;2023-01-08T03:21:31;100748.25;;;4.17;91.22
76124;BME280;65173;48.066;20.976;2023-01-08T03:24:38;100748.84;;;4.25;90.75
76124;BME280;65173;48.066;20.976;2023-01-08T03:27:45;100753.84;;;4.26;90.61
76124;BME280;65173;48.066;20.976;2023-01-08T03:30:51;100754.66;;;4.27;90.70
76124;BME280;65173;48.066;20.976;2023-01-08T03:33:56;100748.31;;;4.28;90.58
76124;BME280;65173;48.066;20.976;2023-01-08T03:37:01;100748.84;;;4.25;90.63
76124;BME280;65173;48.066;20.976;2023-01-08T03:40:09;100745.16;;;4.26;90.60
76124;BME280;65173;48.066;20.976;2023-01-08T03:43:14;100740.09;;;4.19;90.91
76124;BME280;65173;48.066;20.976;2023-01-08T03:46:27;100738.25;;;4.19;90.67
76124;BME280;65173;48.066;20.976;2023-01-08T03:49:33;100745.09;;;4.15;91.03
76124;BME280;65173;48.066;20.976;2023-01-08T03:52:36;100746.94;;;4.15;90.95
76124;BME280;65173;48.066;20.976;2023-01-08T03:55:39;100746.69;;;4.16;90.83
76124;BME280;65173;48.066;20.976;2023-01-08T03:58:42;100747.75;;;4.21;90.96
76124;BME280;65173;48.066;20.976;2023-01-08T04:01:45;100749.31;;;4.16;90.54
76124;BME280;65173;48.066;20.976;2023-01-08T04:04:48;100741.41;;;4.11;90.78
76124;BME280;65173;48.066;20.976;2023-01-08T04:07:54;100734.50;;;4.05;91.38
76124;BME280;65173;48.066;20.976;2023-01-08T04:10:57;100731.84;;;4.00;91.26
76124;BME280;65173;48.066;20.976;2023-01-08T04:14:00;100737.44;;;4.09;91.38
76124;BME280;65173;48.066;20.976;2023-01-08T04:17:03;100736.66;;;4.08;91.42
76124;BME280;65173;48.066;20.976;2023-01-08T04:20:07;100730.50;;;3.98;91.72
76124;BME280;65173;48.066;20.976;2023-01-08T04:23:10;100719.69;;;3.89;92.20
76124;BME280;65173;48.066;20.976;2023-01-08T04:26:13;100717.31;;;3.88;92.36
76124;BME280;65173;48.066;20.976;2023-01-08T04:29:16;100733.38;;;3.86;92.86
76124;BME280;65173;48.066;20.976;2023-01-08T04:32:19;100722.31;;;3.89;92.59
76124;BME280;65173;48.066;20.976;2023-01-08T04:35:22;100718.09;;;3.88;92.32
76124;BME280;65173;48.066;20.976;2023-01-08T04:38:25;100725.00;;;3.99;92.03
76124;BME280;65173;48.066;20.976;2023-01-08T04:41:28;100716.50;;;3.87;92.36
76124;BME280;65173;48.066;20.976;2023-01-08T04:44:31;100732.81;;;3.74;92.91
76124;BME280;65173;48.066;20.976;2023-01-08T04:47:34;100724.09;;;3.78;92.86
76124;BME280;65173;48.066;20.976;2023-01-08T04:50:36;100723.63;;;3.87;92.36
76124;BME280;65173;48.066;20.976;2023-01-08T04:53:39;100721.28;;;3.95;92.27
76124;BME280;65173;48.066;20.976;2023-01-08T04:56:42;100716.34;;;4.09;91.45
76124;BME280;65173;48.066;20.976;2023-01-08T04:59:45;100716.53;;;3.97;91.68
76124;BME280;65173;48.066;20.976;2023-01-08T05:02:48;100714.44;;;3.99;91.81
76124;BME280;65173;48.066;20.976;2023-01-08T05:05:51;100710.72;;;3.90;91.96
76124;BME280;65173;48.066;20.976;2023-01-08T05:08:54;100715.66;;;3.76;92.87
76124;BME280;65173;48.066;20.976;2023-01-08T05:11:56;100722.75;;;3.71;93.36
76124;BME280;65173;48.066;20.976;2023-01-08T05:14:59;100726.44;;;3.70;93.33
76124;BME280;65173;48.066;20.976;2023-01-08T05:18:05;100725.09;;;3.67;93.49
76124;BME280;65173;48.066;20.976;2023-01-08T05:21:08;100720.38;;;3.69;93.37
76124;BME280;65173;48.066;20.976;2023-01-08T05:24:10;100724.56;;;3.65;93.48
76124;BME280;65173;48.066;20.976;2023-01-08T05:27:13;100724.53;;;3.60;93.63
76124;BME280;65173;48.066;20.976;2023-01-08T05:30:16;100723.78;;;3.65;93.57
76124;BME280;65173;48.066;20.976;2023-01-08T05:33:19;100715.72;;;3.87;92.94
76124;BME280;65173;48.066;20.976;2023-01-08T05:36:21;100708.38;;;3.99;92.34
76124;BME280;65173;48.066;20.976;2023-01-08T05:39:24;100707.84;;;3.92;92.00
76124;BME280;65173;48.066;20.976;2023-01-08T05:42:26;100712.03;;;3.88;92.46
76124;BME280;65173;48.066;20.976;2023-01-08T05:45:30;100706.00;;;4.02;91.97
76124;BME280;65173;48.066;20.976;2023-01-08T05:48:34;100707.84;;;4.02;91.74
76124;BME280;65173;48.066;20.976;2023-01-08T05:51:37;100712.09;;;4.03;91.48
76124;BME280;65173;48.066;20.976;2023-01-08T05:54:39;100710.72;;;3.95;91.61
76124;BME280;65173;48.066;20.976;2023-01-08T05:57:42;100714.63;;;3.82;91.84
76124;BME280;65173;48.066;20.976;2023-01-08T06:00:45;100718.91;;;3.94;91.88
76124;BME280;65173;48.066;20.976;2023-01-08T06:03:48;100713.84;;;3.82;92.14
76124;BME280;65173;48.066;20.976;2023-01-08T06:06:51;100727.28;;;3.80;92.20
76124;BME280;65173;48.066;20.976;2023-01-08T06:09:54;100732.97;;;3.62;93.30
76124;BME280;65173;48.066;20.976;2023-01-08T06:12:57;100725.66;;;3.69;93.81
76124;BME280;65173;48.066;20.976;2023-01-08T06:16:00;100728.78;;;3.66;93.35
76124;BME280;65173;48.066;20.976;2023-01-08T06:19:03;100732.50;;;3.70;92.93
76124;BME280;65173;48.066;20.976;2023-01-08T06:22:06;100728.31;;;3.74;92.60
76124;BME280;65173;48.066;20.976;2023-01-08T06:25:09;100729.91;;;3.75;92.78
76124;BME280;65173;48.066;20.976;2023-01-08T06:28:12;100736.72;;;3.71;92.76
76124;BME280;65173;48.066;20.976;2023-01-08T06:31:15;100717.75;;;3.69;92.88
76124;BME280;65173;48.066;20.976;2023-01-08T06:34:18;100735.66;;;3.67;92.87
76124;BME280;65173;48.066;20.976;2023-01-08T06:37:20;100727.25;;;3.70;92.67
76124;BME280;65173;48.066;20.976;2023-01-08T06:40:23;100740.88;;;3.62;93.11
76124;BME280;65173;48.066;20.976;2023-01-08T06:43:26;100729.53;;;3.57;93.01
76124;BME280;65173;48.066;20.976;2023-01-08T06:46:29;100735.38;;;3.64;93.11
76124;BME280;65173;48.066;20.976;2023-01-08T06:49:32;100732.19;;;3.57;93.37
76124;BME280;65173;48.066;20.976;2023-01-08T06:52:35;100740.34;;;3.60;93.27
76124;BME280;65173;48.066;20.976;2023-01-08T06:55:38;100737.69;;;3.55;93.67
76124;BME280;65173;48.066;20.976;2023-01-08T06:58:41;100744.31;;;3.58;93.63
76124;BME280;65173;48.066;20.976;2023-01-08T07:01:43;100733.03;;;3.67;93.03
76124;BME280;65173;48.066;20.976;2023-01-08T07:04:47;100726.91;;;3.62;93.10
76124;BME280;65173;48.066;20.976;2023-01-08T07:07:49;100723.22;;;3.63;93.35
76124;BME280;65173;48.066;20.976;2023-01-08T07:10:52;100715.31;;;3.63;93.32
76124;BME280;65173;48.066;20.976;2023-01-08T07:13:55;100722.72;;;3.66;93.02
76124;BME280;65173;48.066;20.976;2023-01-08T07:16:58;100711.56;;;3.48;93.64
76124;BME280;65173;48.066;20.976;2023-01-08T07:20:01;100713.47;;;3.58;93.78
76124;BME280;65173;48.066;20.976;2023-01-08T07:23:05;100702.66;;;3.60;93.42
76124;BME280;65173;48.066;20.976;2023-01-08T07:26:09;100715.06;;;3.64;93.78
76124;BME280;65173;48.066;20.976;2023-01-08T07:29:11;100715.56;;;3.56;93.55
76124;BME280;65173;48.066;20.976;2023-01-08T07:32:14;100726.63;;;3.53;93.68
76124;BME280;65173;48.066;20.976;2023-01-08T07:35:17;100724.78;;;3.59;93.62
76124;BME280;65173;48.066;20.976;2023-01-08T07:38:20;100719.38;;;3.80;93.21
76124;BME280;65173;48.066;20.976;2023-01-08T07:41:23;100728.56;;;3.73;93.15
76124;BME280;65173;48.066;20.976;2023-01-08T07:44:26;100735.38;;;3.64;93.37
76124;BME280;65173;48.066;20.976;2023-01-08T07:47:28;100749.84;;;3.61;93.29
76124;BME280;65173;48.066;20.976;2023-01-08T07:50:31;100753.00;;;3.58;93.41
76124;BME280;65173;48.066;20.976;2023-01-08T07:53:35;100760.63;;;3.60;93.43
76124;BME280;65173;48.066;20.976;2023-01-08T07:56:38;100746.44;;;3.66;93.49
76124;BME280;65173;48.066;20.976;2023-01-08T07:59:41;100735.41;;;3.69;92.77
76124;BME280;65173;48.066;20.976;2023-01-08T08:02:43;100763.81;;;3.62;93.30
76124;BME280;65173;48.066;20.976;2023-01-08T08:05:46;100747.19;;;3.56;93.24
76124;BME280;65173;48.066;20.976;2023-01-08T08:08:49;100735.88;;;3.61;93.56
76124;BME280;65173;48.066;20.976;2023-01-08T08:11:52;100733.53;;;3.64;93.41
76124;BME280;65173;48.066;20.976;2023-01-08T08:14:54;100726.44;;;3.70;93.07
76124;BME280;65173;48.066;20.976;2023-01-08T08:17:57;100736.69;;;3.66;92.97
76124;BME280;65173;48.066;20.976;2023-01-08T08:21:00;100734.84;;;3.67;93.00
76124;BME280;65173;48.066;20.976;2023-01-08T08:24:03;100731.75;;;3.75;92.64
76124;BME280;65173;48.066;20.976;2023-01-08T08:27:06;100746.19;;;3.67;92.90
76124;BME280;65173;48.066;20.976;2023-01-08T08:30:10;100741.47;;;3.69;92.97
76124;BME280;65173;48.066;20.976;2023-01-08T08:33:13;100731.22;;;3.73;92.93
76124;BME280;65173;48.066;20.976;2023-01-08T08:36:16;100747.28;;;3.76;93.10
76124;BME280;65173;48.066;20.976;2023-01-08T08:39:19;100759.97;;;3.74;92.70
76124;BME280;65173;48.066;20.976;2023-01-08T08:42:22;100757.06;;;3.76;92.71
76124;BME280;65173;48.066;20.976;2023-01-08T08:45:25;100746.53;;;3.76;92.01
76124;BME280;65173;48.066;20.976;2023-01-08T08:48:28;100750.94;;;3.65;92.78
76124;BME280;65173;48.066;20.976;2023-01-08T08:51:31;100740.66;;;3.69;92.91
76124;BME280;65173;48.066;20.976;2023-01-08T08:54:33;100722.50;;;3.72;93.16
76124;BME280;65173;48.066;20.976;2023-01-08T08:57:36;100753.31;;;3.67;93.30
76124;BME280;65173;48.066;20.976;2023-01-08T09:00:42;100753.56;;;3.65;93.24
76124;BME280;65173;48.066;20.976;2023-01-08T09:03:45;100747.78;;;3.68;92.93
76124;BME280;65173;48.066;20.976;2023-01-08T09:06:48;100751.22;;;3.69;93.24
76124;BME280;65173;48.066;20.976;2023-01-08T09:09:50;100748.53;;;3.64;93.23
76124;BME280;65173;48.066;20.976;2023-01-08T09:12:53;100731.94;;;3.58;93.64
76124;BME280;65173;48.066;20.976;2023-01-08T09:15:59;100741.47;;;3.69;93.12
76124;BME280;65173;48.066;20.976;2023-01-08T09:19:03;100751.19;;;3.64;93.79
76124;BME280;65173;48.066;20.976;2023-01-08T09:22:05;100734.09;;;3.71;93.34
76124;BME280;65173;48.066;20.976;2023-01-08T09:25:08;100741.50;;;3.79;93.23
76124;BME280;65173;48.066;20.976;2023-01-08T09:28:11;100734.94;;;3.82;92.68
76124;BME280;65173;48.066;20.976;2023-01-08T09:31:14;100724.09;;;3.78;93.18
76124;BME280;65173;48.066;20.976;2023-01-08T09:34:17;100717.53;;;3.81;93.00
76124;BME280;65173;48.066;20.976;2023-01-08T09:37:20;100715.41;;;3.78;93.06
76124;BME280;65173;48.066;20.976;2023-01-08T09:40:34;100695.34;;;3.77;93.22
76124;BME280;65173;48.066;20.976;2023-01-08T09:43:41;100700.16;;;3.85;93.24
76124;BME280;65173;48.066;20.976;2023-01-08T09:46:45;100681.22;;;3.98;92.49
76124;BME280;65173;48.066;20.976;2023-01-08T09:49:51;100676.97;;;3.92;92.68
76124;BME280;65173;48.066;20.976;2023-01-08T09:52:56;100675.13;;;3.98;92.55
76124;BME280;65173;48.066;20.976;2023-01-08T09:56:01;100685.16;;;3.96;92.27
76124;BME280;65173;48.066;20.976;2023-01-08T09:59:15;100685.16;;;3.96;92.59
76124;BME280;65173;48.066;20.976;2023-01-08T10:02:21;100681.19;;;3.88;92.95
76124;BME280;65173;48.066;20.976;2023-01-08T10:05:25;100673.25;;;3.83;93.22
76124;BME280;65173;48.066;20.976;2023-01-08T10:08:31;100676.38;;;3.70;93.59
76124;BME280;65173;48.066;20.976;2023-01-08T10:11:42;100675.06;;;3.72;93.53
76124;BME280;65173;48.066;20.976;2023-01-08T10:14:46;100671.13;;;3.75;93.59
76124;BME280;65173;48.066;20.976;2023-01-08T10:18:01;100670.03;;;3.71;93.30
76124;BME280;65173;48.066;20.976;2023-01-08T10:21:07;100665.59;;;3.81;93.74
76124;BME280;65173;48.066;20.976;2023-01-08T10:24:13;100661.94;;;3.88;93.54
76124;BME280;65173;48.066;20.976;2023-01-08T10:27:17;100666.94;;;3.89;92.72
76124;BME280;65173;48.066;20.976;2023-01-08T10:30:23;100648.47;;;3.84;92.69
76124;BME280;65173;48.066;20.976;2023-01-08T10:33:44;100658.00;;;3.90;92.84
76124;BME280;65173;48.066;20.976;2023-01-08T10:36:47;100658.75;;;3.86;92.58
76124;BME280;65173;48.066;20.976;2023-01-08T10:39:51;100655.03;;;3.81;92.68
76124;BME280;65173;48.066;20.976;2023-01-08T10:42:55;100652.91;;;3.73;93.03
76124;BME280;65173;48.066;20.976;2023-01-08T10:46:11;100648.44;;;3.74;92.98
76124;BME280;65173;48.066;20.976;2023-01-08T10:49:21;100645.56;;;3.75;93.04
76124;BME280;65173;48.066;20.976;2023-01-08T10:52:30;100640.56;;;3.84;92.54
76124;BME280;65173;48.066;20.976;2023-01-08T10:55:35;100639.47;;;3.80;92.61
76124;BME280;65173;48.066;20.976;2023-01-08T10:58:40;100631.59;;;3.85;92.31
76124;BME280;65173;48.066;20.976;2023-01-08T11:01:46;100624.72;;;3.74;93.00
76124;BME280;65173;48.066;20.976;2023-01-08T11:04:50;100621.34;;;3.94;92.88
76124;BME280;65173;48.066;20.976;2023-01-08T11:07:55;100626.63;;;3.99;91.84
76124;BME280;65173;48.066;20.976;2023-01-08T11:11:00;100620.84;;;4.07;91.96
76124;BME280;65173;48.066;20.976;2023-01-08T11:14:05;100610.19;;;3.76;92.35
76124;BME280;65173;48.066;20.976;2023-01-08T11:17:16;100614.97;;;3.79;93.19
76124;BME280;65173;48.066;20.976;2023-01-08T11:20:22;100604.69;;;3.83;92.83
76124;BME280;65173;48.066;20.976;2023-01-08T11:23:27;100600.78;;;3.91;92.53
76124;BME280;65173;48.066;20.976;2023-01-08T11:26:31;100604.47;;;3.90;92.54
76124;BME280;65173;48.066;20.976;2023-01-08T11:29:55;100608.16;;;3.99;92.44
76124;BME280;65173;48.066;20.976;2023-01-08T11:33:03;100597.59;;;3.99;92.38
76124;BME280;65173;48.066;20.976;2023-01-08T11:36:12;100603.16;;;4.02;92.32
76124;BME280;65173;48.066;20.976;2023-01-08T11:39:19;100598.41;;;3.99;91.93
76124;BME280;65173;48.066;20.976;2023-01-08T11:45:54;100588.59;;;3.79;93.15
76124;BME280;65173;48.066;20.976;2023-01-08T11:55:39;100573.13;;;4.08;92.61
76124;BME280;65173;48.066;20.976;2023-01-08T12:02:47;100571.78;;;4.01;92.83
76124;BME280;65173;48.066;20.976;2023-01-08T12:06:12;100560.69;;;4.14;92.44
76124;BME280;65173;48.066;20.976;2023-01-08T12:09:37;100560.94;;;3.97;92.95
76124;BME280;65173;48.066;20.976;2023-01-08T12:26:31;100557.28;;;4.03;93.19
76124;BME280;65173;48.066;20.976;2023-01-08T12:30:01;100554.38;;;4.05;92.83
76124;BME280;65173;48.066;20.976;2023-01-08T12:36:27;100548.56;;;4.03;92.74
76124;BME280;65173;48.066;20.976;2023-01-08T12:39:46;100548.28;;;3.99;93.18
76124;BME280;65173;48.066;20.976;2023-01-08T12:42:50;100537.50;;;3.91;93.04
76124;BME280;65173;48.066;20.976;2023-01-08T12:46:02;100533.25;;;3.95;93.51
76124;BME280;65173;48.066;20.976;2023-01-08T12:49:10;100523.00;;;4.08;93.07
76124;BME280;65173;48.066;20.976;2023-01-08T12:52:25;100528.00;;;4.00;93.27
76124;BME280;65173;48.066;20.976;2023-01-08T12:55:45;100524.31;;;4.11;92.93
76124;BME280;65173;48.066;20.976;2023-01-08T12:59:03;100515.59;;;4.00;93.00
76124;BME280;65173;48.066;20.976;2023-01-08T13:02:29;100521.66;;;4.01;93.21
76124;BME280;65173;48.066;20.976;2023-01-08T13:05:36;100530.09;;;3.98;92.87
76124;BME280;65173;48.066;20.976;2023-01-08T13:08:40;100524.03;;;3.92;92.88
76124;BME280;65173;48.066;20.976;2023-01-08T13:11:50;100533.25;;;3.95;93.07
76124;BME280;65173;48.066;20.976;2023-01-08T13:14:54;100531.44;;;4.05;93.24
76124;BME280;65173;48.066;20.976;2023-01-08T13:18:06;100532.22;;;4.01;93.15
76124;BME280;65173;48.066;20.976;2023-01-08T13:21:10;100511.38;;;3.94;93.83
76124;BME280;65173;48.066;20.976;2023-01-08T13:27:32;100509.81;;;3.93;93.55
76124;BME280;65173;48.066;20.976;2023-01-08T13:30:38;100500.56;;;4.01;93.43
76124;BME280;65173;48.066;20.976;2023-01-08T13:33:41;100509.56;;;4.10;93.03
76124;BME280;65173;48.066;20.976;2023-01-08T13:36:58;100501.34;;;4.22;92.52
76124;BME280;65173;48.066;20.976;2023-01-08T13:40:01;100515.09;;;4.08;93.27
76124;BME280;65173;48.066;20.976;2023-01-08T13:43:19;100503.47;;;4.14;93.05
76124;BME280;65173;48.066;20.976;2023-01-08T13:46:22;100505.06;;;4.21;93.36
76124;BME280;65173;48.066;20.976;2023-01-08T13:49:28;100502.94;;;4.23;93.10
76124;BME280;65173;48.066;20.976;2023-01-08T13:52:41;100492.63;;;4.31;93.14
76124;BME280;65173;48.066;20.976;2023-01-08T13:55:53;100494.75;;;4.34;92.53
76124;BME280;65173;48.066;20.976;2023-01-08T13:58:58;100486.31;;;4.32;93.28
76124;BME280;65173;48.066;20.976;2023-01-08T14:02:00;100487.63;;;4.35;93.16
76124;BME280;65173;48.066;20.976;2023-01-08T14:05:13;100487.63;;;4.40;93.03
76124;BME280;65173;48.066;20.976;2023-01-08T14:08:24;100485.50;;;4.37;93.56
76124;BME280;65173;48.066;20.976;2023-01-08T14:11:37;100481.56;;;4.39;93.44
76124;BME280;65173;48.066;20.976;2023-01-08T14:14:47;100482.31;;;4.50;93.28
76124;BME280;65173;48.066;20.976;2023-01-08T14:17:50;100483.09;;;4.50;93.29
76124;BME280;65173;48.066;20.976;2023-01-08T14:20:54;100484.41;;;4.53;93.42
76124;BME280;65173;48.066;20.976;2023-01-08T14:23:57;100480.50;;;4.45;93.70
76124;BME280;65173;48.066;20.976;2023-01-08T14:27:00;100485.50;;;4.42;93.94
76124;BME280;65173;48.066;20.976;2023-01-08T14:30:14;100466.25;;;4.41;93.81
76124;BME280;65173;48.066;20.976;2023-01-08T14:33:21;100471.25;;;4.43;93.79
76124;BME280;65173;48.066;20.976;2023-01-08T14:36:25;100461.75;;;4.47;93.77
76124;BME280;65173;48.066;20.976;2023-01-08T14:39:32;100464.91;;;4.49;93.38
76124;BME280;65173;48.066;20.976;2023-01-08T14:42:36;100465.69;;;4.54;93.67
76124;BME280;65173;48.066;20.976;2023-01-08T14:45:52;100468.56;;;4.63;93.02
76124;BME280;65173;48.066;20.976;2023-01-08T14:48:55;100470.69;;;4.56;93.64
76124;BME280;65173;48.066;20.976;2023-01-08T14:52:00;100457.22;;;4.58;93.39
76124;BME280;65173;48.066;20.976;2023-01-08T14:55:04;100466.19;;;4.62;93.28
76124;BME280;65173;48.066;20.976;2023-01-08T14:58:14;100457.50;;;4.61;93.08
76124;BME280;65173;48.066;20.976;2023-01-08T15:04:27;100459.59;;;4.59;93.16
76124;BME280;65173;48.066;20.976;2023-01-08T15:07:30;100456.72;;;4.56;93.28
76124;BME280;65173;48.066;20.976;2023-01-08T15:13:37;100451.72;;;4.44;93.75
76124;BME280;65173;48.066;20.976;2023-01-08T15:16:41;100453.81;;;4.57;93.26
76124;BME280;65173;48.066;20.976;2023-01-08T15:19:47;100447.50;;;4.38;93.84
76124;BME280;65173;48.066;20.976;2023-01-08T15:22:52;100438.28;;;4.45;93.57
76124;BME280;65173;48.066;20.976;2023-01-08T15:25:55;100433.78;;;4.41;93.81
76124;BME280;65173;48.066;20.976;2023-01-08T15:29:04;100438.00;;;4.37;93.91
76124;BME280;65173;48.066;20.976;2023-01-08T15:35:17;100436.44;;;4.41;93.99
76124;BME280;65173;48.066;20.976;2023-01-08T15:38:20;100439.06;;;4.36;94.26
76124;BME280;65173;48.066;20.976;2023-01-08T15:41:31;100423.75;;;4.33;94.51
76124;BME280;65173;48.066;20.976;2023-01-08T15:44:53;100428.00;;;4.34;94.23
76124;BME280;65173;48.066;20.976;2023-01-08T15:47:56;100428.50;;;4.41;93.94
76124;BME280;65173;48.066;20.976;2023-01-08T15:50:59;100413.72;;;4.45;93.77
76124;BME280;65173;48.066;20.976;2023-01-08T15:54:02;100422.97;;;4.42;93.94
76124;BME280;65173;48.066;20.976;2023-01-08T15:57:04;100424.81;;;4.32;94.43
76124;BME280;65173;48.066;20.976;2023-01-08T16:00:10;100427.72;;;4.35;94.16
76124;BME280;65173;48.066;20.976;2023-01-08T16:03:14;100424.78;;;4.52;93.49
76124;BME280;65173;48.066;20.976;2023-01-08T16:06:17;100436.66;;;4.54;93.29
76124;BME280;65173;48.066;20.976;2023-01-08T16:09:20;100438.25;;;4.50;93.58
76124;BME280;65173;48.066;20.976;2023-01-08T16:12:22;100416.38;;;4.45;93.49
76124;BME280;65173;48.066;20.976;2023-01-08T16:15:25;100426.88;;;4.60;93.20
76124;BME280;65173;48.066;20.976;2023-01-08T16:18:29;100416.31;;;4.55;93.54
76124;BME280;65173;48.066;20.976;2023-01-08T16:21:32;100416.59;;;4.59;93.48
76124;BME280;65173;48.066;20.976;2023-01-08T16:24:34;100416.59;;;4.59;93.40
76124;BME280;65173;48.066;20.976;2023-01-08T16:27:37;100414.47;;;4.56;93.76
76124;BME280;65173;48.066;20.976;2023-01-08T16:30:41;100416.31;;;4.55;93.63
76124;BME280;65173;48.066;20.976;2023-01-08T16:33:45;100413.41;;;4.57;93.61
76124;BME280;65173;48.066;20.976;2023-01-08T16:36:48;100409.47;;;4.54;93.64
76124;BME280;65173;48.066;20.976;2023-01-08T16:39:51;100410.50;;;4.63;93.59
76124;BME280;65173;48.066;20.976;2023-01-08T16:42:59;100405.97;;;4.69;93.19
76124;BME280;65173;48.066;20.976;2023-01-08T16:46:13;100404.38;;;4.68;93.04
76124;BME280;65173;48.066;20.976;2023-01-08T16:49:17;100390.97;;;4.64;93.31
76124;BME280;65173;48.066;20.976;2023-01-08T16:52:20;100393.81;;;4.68;93.27
76124;BME280;65173;48.066;20.976;2023-01-08T16:55:23;100390.97;;;4.64;93.73
76124;BME280;65173;48.066;20.976;2023-01-08T16:58:26;100389.34;;;4.68;93.64
76124;BME280;65173;48.066;20.976;2023-01-08T17:01:30;100396.72;;;4.71;93.64